createdAt,value
2023-03-12T00:09:09.599Z,2.47
2023-03-12T00:19:30.725Z,2.35
2023-03-12T00:29:52.372Z,2.00
2023-03-12T00:40:13.690Z,1.73
2023-03-12T00:50:34.861Z,2.00
2023-03-12T01:00:55.849Z,1.95
2023-03-12T01:11:19.310Z,2.35
2023-03-12T01:21:40.316Z,2.42
2023-03-12T01:32:01.301Z,1.90
2023-03-12T01:42:22.839Z,2.38
2023-03-12T01:52:44.267Z,2.78
2023-03-12T02:03:08.121Z,1.98
2023-03-12T02:13:30.747Z,1.98
2023-03-12T02:24:03.607Z,2.45
2023-03-12T02:34:26.836Z,2.15
2023-03-12T02:44:48.071Z,2.22
2023-03-12T02:55:11.100Z,2.25
2023-03-12T03:05:33.189Z,2.55
2023-03-12T03:15:54.844Z,2.22
2023-03-12T03:26:19.226Z,2.13
2023-03-12T03:36:41.170Z,2.00
2023-03-12T03:47:07.179Z,2.15
2023-03-12T03:57:28.613Z,1.80
2023-03-12T04:07:52.737Z,1.75
2023-03-12T04:18:16.694Z,1.70
2023-03-12T04:28:39.203Z,2.05
2023-03-12T04:39:02.220Z,2.30
2023-03-12T04:49:27.805Z,2.40
2023-03-12T04:59:49.541Z,2.55
2023-03-12T05:10:11.635Z,2.45
2023-03-12T05:21:02.197Z,2.30
2023-03-12T05:31:24.495Z,2.08
2023-03-12T05:41:46.133Z,2.00
2023-03-12T05:52:12.266Z,2.20
2023-03-12T06:02:33.886Z,2.20
2023-03-12T06:12:55.450Z,2.70
2023-03-12T06:23:16.923Z,2.70
2023-03-12T06:33:38.568Z,2.63
2023-03-12T06:44:01.028Z,2.58
2023-03-12T06:54:22.216Z,2.58
2023-03-12T07:04:43.215Z,2.13
2023-03-12T07:15:05.446Z,2.55
2023-03-12T07:25:26.811Z,2.60
2023-03-12T07:35:51.450Z,2.28
2023-03-12T07:46:13.497Z,2.47
2023-03-12T07:56:36.115Z,2.45
2023-03-12T08:06:57.220Z,2.22
2023-03-12T08:17:18.525Z,2.17
2023-03-12T08:27:39.647Z,2.00
2023-03-12T08:38:01.371Z,2.17
2023-03-12T08:48:22.794Z,2.28
2023-03-12T08:58:43.873Z,1.63
2023-03-12T09:09:06.014Z,1.52
2023-03-12T09:19:26.992Z,1.67
2023-03-12T09:29:59.366Z,1.58
2023-03-12T09:40:25.057Z,1.85
2023-03-12T09:50:48.989Z,1.60
2023-03-12T10:01:19.545Z,1.85
2023-03-12T10:12:14.033Z,1.65
2023-03-12T10:22:52.844Z,2.05
2023-03-12T10:33:16.505Z,1.67
2023-03-12T10:43:38.112Z,1.67
2023-03-12T10:53:59.524Z,1.55
2023-03-12T11:04:31.754Z,1.52
2023-03-12T11:14:53.455Z,1.50
2023-03-12T11:25:29.591Z,1.65
2023-03-12T11:35:53.744Z,1.98
2023-03-12T11:46:41.250Z,1.70
2023-03-12T11:57:15.155Z,1.80
2023-03-12T12:07:51.553Z,1.70
2023-03-12T12:18:28.368Z,2.10
2023-03-12T12:29:01.751Z,1.77
2023-03-12T12:39:38.865Z,1.63
2023-03-12T12:50:00.726Z,1.80
2023-03-12T13:00:55.778Z,1.60
2023-03-12T13:11:20.578Z,1.55
2023-03-12T13:22:21.653Z,1.65
2023-03-12T13:33:07.006Z,1.60
2023-03-12T13:43:40.374Z,1.80
2023-03-12T13:54:03.377Z,1.77
2023-03-12T14:04:31.098Z,1.52
2023-03-12T14:14:58.000Z,1.38
2023-03-12T14:25:37.407Z,1.70
2023-03-12T14:36:15.232Z,1.73
2023-03-12T14:46:36.346Z,1.70
2023-03-12T14:56:57.874Z,1.90
2023-03-12T15:07:33.970Z,1.85
2023-03-12T15:17:55.693Z,1.85
2023-03-12T15:28:18.454Z,1.98
2023-03-12T15:39:05.984Z,1.60
2023-03-12T15:49:30.572Z,1.70
2023-03-12T16:00:12.214Z,1.70
2023-03-12T16:10:35.385Z,1.60
2023-03-12T16:20:56.538Z,2.20
2023-03-12T16:31:17.852Z,1.75
2023-03-12T16:41:39.577Z,1.80
2023-03-12T16:52:00.573Z,1.80
2023-03-12T17:02:22.054Z,1.60
2023-03-12T17:12:44.151Z,1.90
2023-03-12T17:23:06.494Z,1.75
2023-03-12T17:33:27.512Z,1.58
2023-03-12T17:43:48.958Z,1.88
2023-03-12T17:54:10.114Z,1.83
2023-03-12T18:04:31.108Z,1.88
2023-03-12T18:14:52.391Z,1.92
2023-03-12T18:25:14.106Z,1.60
2023-03-12T18:35:35.386Z,1.60
2023-03-12T18:45:56.542Z,1.63
2023-03-12T18:56:17.664Z,1.77
2023-03-12T19:06:50.339Z,1.40
2023-03-12T19:17:12.822Z,1.73
2023-03-12T19:27:34.305Z,1.63
2023-03-12T19:37:56.146Z,1.52
2023-03-12T19:48:17.580Z,1.80
2023-03-12T19:58:38.505Z,1.80
2023-03-12T20:08:59.940Z,1.77
2023-03-12T20:19:21.504Z,1.60
2023-03-12T20:29:43.755Z,1.77
2023-03-12T20:40:06.186Z,1.95
2023-03-12T20:50:28.150Z,2.45
2023-03-12T21:00:49.128Z,2.00
2023-03-12T21:11:10.977Z,1.75
2023-03-12T21:21:35.387Z,2.05
2023-03-12T21:31:57.616Z,2.33
2023-03-12T21:42:19.286Z,2.03
2023-03-12T21:52:43.555Z,2.60
2023-03-12T22:03:05.110Z,2.70
2023-03-12T22:13:26.670Z,2.92
2023-03-12T22:23:51.244Z,3.08
2023-03-12T22:34:12.513Z,2.88
2023-03-12T22:44:33.718Z,3.22
2023-03-12T22:54:54.849Z,2.85
2023-03-12T23:05:16.392Z,2.80
2023-03-12T23:15:41.465Z,2.92
2023-03-12T23:26:03.658Z,3.08
2023-03-12T23:36:24.832Z,2.70
2023-03-12T23:46:45.754Z,2.88
2023-03-12T23:57:07.125Z,2.45
